Ralph Wien Memorial Airport
PAOT : now visible

Aeroporto :











RITROVATECI SU...

 
LOGIN :

Iscrizione | Disclaimer

   EN    FR    IT 

 









Sommario :    VFR   VFR Marginale   IFR   IFR Intensivo   IFR Molto Intensivo
Visibilità : 
Base nubi : 
>= 8 km
>= 3000ft
5 / 8 km
1000 / 3000 ft
1500m / 5 km
500 / 1000 ft
800 / 1500m
200 / 500 ft
< 800m
< 200 ft
Simboli :   Temporali  Nebbia  Neve Forte  Precipitazioni Forti  Vento > 20 kt






- Altitudine del aeroporto : 14 ft
- Codice IATA : OTZ


PAOT - Ralph Wien Memorial

ULTIMO METAR :
  • 011853Z 25005KT 10SM CLR 04/02 A2958 RMK AO2 SLP015 T00390017

METARs OBSOLETI :
  • 011753Z 26003KT 10SM CLR 04/02 A2957 RMK AO2 SLP013 T00440022 10139 20039 51006
  • 011653Z 30004KT 10SM CLR 04/02 A2956 RMK AO2 SLP011 T00440017

TAF PAOT
Valido dal 01 a 18 ore il 02 a 18 ore UTC


011740Z 0118/0218 30006KT P6SM FEW050 SCT120
FM012200 35006KT P6SM VCSH FEW050 SCT100
FM020700 30007KT P6SM FEW050 FEW100
FIR PAZA / America del Nord



MetMap, La meteo Aeronautica in un colpo d'occhio ! - Copyright ORBIFLY Dicembre 2007 - Disclaimer

ORBIFLY MET'MAP TEAM :

Programmazione e sviluppo : Alexandra Zaïnal
Concezione : Baudouin d'Aumeries
Aiuto per la programmazione : Marc-Olivier Méhu
Supporto tecnico e logistico : Manuel Goepfert
Aiuto per la traduzione : Arnaldo La Scala

Contatto : metmap@orbifly.com




FONTI E CREDITI :

   NOAA       Earth
Advisory